createdAt,value
2023-05-20T00:01:30.561Z,11.28
2023-05-20T00:03:56.951Z,11.19
2023-05-20T00:06:23.316Z,11.28
2023-05-20T00:08:49.599Z,11.23
2023-05-20T00:11:15.858Z,10.69
2023-05-20T00:13:42.134Z,10.86
2023-05-20T00:16:08.570Z,10.78
2023-05-20T00:18:34.911Z,10.90
2023-05-20T00:21:01.199Z,10.88
2023-05-20T00:23:27.549Z,10.68
2023-05-20T00:25:53.803Z,9.73
2023-05-20T00:28:20.109Z,9.76
2023-05-20T00:30:46.375Z,9.56
2023-05-20T00:33:12.718Z,9.70
2023-05-20T00:35:39.063Z,9.83
2023-05-20T00:38:05.359Z,10.16
2023-05-20T00:40:31.607Z,10.55
2023-05-20T00:42:57.878Z,10.08
2023-05-20T00:45:24.147Z,10.19
2023-05-20T00:47:50.468Z,10.31
2023-05-20T00:50:16.792Z,9.87
2023-05-20T00:52:43.074Z,9.75
2023-05-20T00:55:09.338Z,9.74
2023-05-20T00:57:35.627Z,9.51
2023-05-20T01:00:01.907Z,9.41
2023-05-20T01:02:28.339Z,9.60
2023-05-20T01:04:54.687Z,9.85
2023-05-20T01:07:20.940Z,9.63
2023-05-20T01:09:47.206Z,9.89
2023-05-20T01:12:13.551Z,9.73
2023-05-20T01:14:39.815Z,9.91
2023-05-20T01:17:06.110Z,10.24
2023-05-20T01:19:32.399Z,10.19
2023-05-20T01:21:58.660Z,9.73
2023-05-20T01:24:24.930Z,9.98
2023-05-20T01:26:51.204Z,10.02
2023-05-20T01:29:17.599Z,10.14
2023-05-20T01:31:43.912Z,10.06
2023-05-20T01:34:10.258Z,10.05
2023-05-20T01:36:36.534Z,10.36
2023-05-20T01:39:02.821Z,10.91
2023-05-20T01:41:29.102Z,10.69
2023-05-20T01:43:55.392Z,10.86
2023-05-20T01:46:21.814Z,10.86
2023-05-20T01:48:48.116Z,10.78
2023-05-20T01:51:14.385Z,10.20
2023-05-20T01:53:40.674Z,10.34
2023-05-20T01:56:06.958Z,10.65
2023-05-20T01:58:33.314Z,10.88
2023-05-20T02:00:59.659Z,11.16
2023-05-20T02:03:26.049Z,11.45
2023-05-20T02:05:52.406Z,11.31
2023-05-20T02:08:18.779Z,10.80
2023-05-20T02:10:45.050Z,9.89
2023-05-20T02:13:11.376Z,10.24
2023-05-20T02:15:37.641Z,10.69
2023-05-20T02:18:03.993Z,10.95
2023-05-20T02:20:30.319Z,11.12
2023-05-20T02:22:56.641Z,11.32
2023-05-20T02:25:22.903Z,11.60
2023-05-20T02:27:49.177Z,11.14
2023-05-20T02:30:15.494Z,10.98
2023-05-20T02:32:41.808Z,11.20
2023-05-20T02:35:08.096Z,10.94
2023-05-20T02:37:34.402Z,10.46
2023-05-20T02:40:00.684Z,10.21
2023-05-20T02:42:26.970Z,9.96
2023-05-20T02:44:53.249Z,9.86
2023-05-20T02:47:19.520Z,10.28
2023-05-20T02:49:45.782Z,10.72
2023-05-20T02:52:12.049Z,10.96
2023-05-20T02:54:38.318Z,11.12
2023-05-20T02:57:04.597Z,11.27
2023-05-20T02:59:30.856Z,11.34
2023-05-20T03:01:57.433Z,11.35
2023-05-20T03:04:23.780Z,11.21
2023-05-20T03:06:50.064Z,11.09
2023-05-20T03:09:16.350Z,11.00
2023-05-20T03:11:42.619Z,10.88
2023-05-20T03:14:08.891Z,10.69
2023-05-20T03:16:35.222Z,10.60
2023-05-20T03:19:01.619Z,10.33
2023-05-20T03:21:27.889Z,10.17
2023-05-20T03:23:54.179Z,10.24
2023-05-20T03:26:20.441Z,10.28
2023-05-20T03:28:46.688Z,10.46
2023-05-20T03:31:12.954Z,9.66
2023-05-20T03:33:39.245Z,9.07
2023-05-20T03:36:05.523Z,9.11
2023-05-20T03:38:31.784Z,9.03
2023-05-20T03:40:58.075Z,8.73
2023-05-20T03:43:24.334Z,8.92
2023-05-20T03:45:50.587Z,9.14
2023-05-20T03:48:16.875Z,9.70
2023-05-20T03:50:43.136Z,9.66
2023-05-20T03:53:09.421Z,9.69
2023-05-20T03:55:35.930Z,9.96
2023-05-20T03:58:02.497Z,9.45
2023-05-20T04:00:28.758Z,9.59
2023-05-20T04:02:55.109Z,9.55
2023-05-20T04:05:21.424Z,9.92
2023-05-20T04:07:47.670Z,10.14
2023-05-20T04:10:13.989Z,10.21
2023-05-20T04:12:40.278Z,10.10
2023-05-20T04:15:06.536Z,9.74
2023-05-20T04:17:32.923Z,9.63
2023-05-20T04:19:59.230Z,10.10
2023-05-20T04:22:25.497Z,10.58
2023-05-20T04:24:51.794Z,10.72
2023-05-20T04:27:18.052Z,10.60
2023-05-20T04:29:44.327Z,10.12
2023-05-20T04:32:10.719Z,10.47
2023-05-20T04:34:37.114Z,10.79
2023-05-20T04:37:03.392Z,10.46
2023-05-20T04:39:29.674Z,10.17
2023-05-20T04:41:55.948Z,10.93
2023-05-20T04:44:22.223Z,10.87
2023-05-20T04:46:48.498Z,11.15
2023-05-20T04:49:14.784Z,11.49
2023-05-20T04:51:41.032Z,11.66
2023-05-20T04:54:07.280Z,11.77
2023-05-20T04:56:33.556Z,11.89
2023-05-20T04:58:59.819Z,12.08
2023-05-20T05:01:26.141Z,11.27
2023-05-20T05:03:52.420Z,12.01
2023-05-20T05:06:18.665Z,12.05
2023-05-20T05:08:44.946Z,12.55
2023-05-20T05:11:11.225Z,11.98
2023-05-20T05:13:37.499Z,12.22
2023-05-20T05:16:03.817Z,12.67
2023-05-20T05:18:30.183Z,12.91
2023-05-20T05:20:56.469Z,12.80
2023-05-20T05:23:22.737Z,13.01
2023-05-20T05:25:49.037Z,12.77
2023-05-20T05:28:15.310Z,13.23
2023-05-20T05:30:41.579Z,13.43
2023-05-20T05:33:08.014Z,13.49
2023-05-20T05:35:34.623Z,13.13
2023-05-20T05:38:01.100Z,13.64
2023-05-20T05:40:27.462Z,13.95
2023-05-20T05:42:53.726Z,14.15
2023-05-20T05:45:19.996Z,14.16
2023-05-20T05:47:46.348Z,14.15
2023-05-20T05:50:12.678Z,14.20
2023-05-20T05:52:38.951Z,14.09
2023-05-20T05:55:05.213Z,14.22
2023-05-20T05:57:31.563Z,14.30
2023-05-20T05:59:57.811Z,14.45
2023-05-20T06:02:24.135Z,14.51
2023-05-20T06:04:50.429Z,14.51
2023-05-20T06:07:16.698Z,14.32
2023-05-20T06:09:43.003Z,14.42
2023-05-20T06:12:09.275Z,13.90
2023-05-20T06:14:35.548Z,13.99
2023-05-20T06:17:01.868Z,13.95
2023-05-20T06:19:28.186Z,14.04
2023-05-20T06:21:54.486Z,14.19
2023-05-20T06:24:21.954Z,14.38
2023-05-20T06:26:50.018Z,14.40
2023-05-20T06:29:16.277Z,14.13
2023-05-20T06:31:42.565Z,14.24
2023-05-20T06:34:08.856Z,14.17
2023-05-20T06:36:35.120Z,14.07
2023-05-20T06:39:01.386Z,14.33
2023-05-20T06:41:27.706Z,14.69
2023-05-20T06:43:53.975Z,14.93
2023-05-20T06:46:20.416Z,14.84
2023-05-20T06:48:46.907Z,14.57
2023-05-20T06:51:13.183Z,14.59
2023-05-20T06:53:39.493Z,14.54
2023-05-20T06:56:05.838Z,14.52
2023-05-20T06:58:32.106Z,14.81
2023-05-20T07:00:58.410Z,14.43
2023-05-20T07:03:24.790Z,14.24
2023-05-20T07:05:51.089Z,14.82
2023-05-20T07:08:17.351Z,14.33
2023-05-20T07:10:43.654Z,14.21
2023-05-20T07:13:09.996Z,14.57
2023-05-20T07:15:36.502Z,15.23
2023-05-20T07:18:03.013Z,15.36
2023-05-20T07:20:29.290Z,15.13
2023-05-20T07:22:55.548Z,15.19
2023-05-20T07:25:21.827Z,15.28
2023-05-20T07:27:48.095Z,14.84
2023-05-20T07:30:14.350Z,14.76
2023-05-20T07:32:40.806Z,14.99
2023-05-20T07:35:07.140Z,14.80
2023-05-20T07:37:33.399Z,14.79
2023-05-20T07:39:59.706Z,14.47
2023-05-20T07:42:25.959Z,14.88
2023-05-20T07:44:52.221Z,15.48
2023-05-20T07:47:18.491Z,15.23
2023-05-20T07:49:44.776Z,14.93
2023-05-20T07:52:11.081Z,14.43
2023-05-20T07:54:37.334Z,14.62
2023-05-20T07:57:03.608Z,14.70
2023-05-20T07:59:29.896Z,14.81
2023-05-20T08:01:56.204Z,14.64
2023-05-20T08:04:22.558Z,14.45
2023-05-20T08:06:48.873Z,14.63
2023-05-20T08:09:15.316Z,15.03
2023-05-20T08:11:41.587Z,15.12
2023-05-20T08:14:07.942Z,14.65
2023-05-20T08:16:34.357Z,14.80
2023-05-20T08:19:00.703Z,15.66
2023-05-20T08:21:27.021Z,15.89
2023-05-20T08:23:53.275Z,15.57
2023-05-20T08:26:19.558Z,15.33
2023-05-20T08:28:45.810Z,14.95
2023-05-20T08:31:12.195Z,15.10
2023-05-20T08:33:39.980Z,15.55
2023-05-20T08:36:06.253Z,15.98
2023-05-20T08:38:32.578Z,15.69
2023-05-20T08:40:58.878Z,15.92
2023-05-20T08:43:25.167Z,16.22
2023-05-20T08:45:51.506Z,15.98
2023-05-20T08:48:17.756Z,16.40
2023-05-20T08:50:44.042Z,16.03
2023-05-20T08:53:12.542Z,16.50
2023-05-20T08:55:38.839Z,16.09
2023-05-20T08:58:05.110Z,16.06
2023-05-20T09:00:31.497Z,15.71
2023-05-20T09:02:59.358Z,15.55
2023-05-20T09:05:27.125Z,15.30
2023-05-20T09:07:53.478Z,16.25
2023-05-20T09:10:19.894Z,16.71
2023-05-20T09:12:46.190Z,17.44
2023-05-20T09:15:12.469Z,17.63
2023-05-20T09:17:38.812Z,16.85
2023-05-20T09:20:05.133Z,16.52
2023-05-20T09:22:31.404Z,17.33
2023-05-20T09:24:57.693Z,17.20
2023-05-20T09:27:23.939Z,17.88
2023-05-20T09:29:50.273Z,17.20
2023-05-20T09:32:16.531Z,17.68
2023-05-20T09:34:42.819Z,17.79
2023-05-20T09:37:09.122Z,18.31
2023-05-20T09:39:35.392Z,18.00
2023-05-20T09:42:03.727Z,18.88
2023-05-20T09:44:30.304Z,18.67
2023-05-20T09:46:56.639Z,18.71
2023-05-20T09:49:22.915Z,18.39
2023-05-20T09:51:49.187Z,19.06
2023-05-20T09:54:15.480Z,18.09
2023-05-20T09:56:41.842Z,17.70
2023-05-20T09:59:08.111Z,17.49
2023-05-20T10:01:34.419Z,17.64
2023-05-20T10:04:00.754Z,18.05
2023-05-20T10:06:27.069Z,17.25
2023-05-20T10:08:54.631Z,17.46
2023-05-20T10:11:22.689Z,17.31
2023-05-20T10:13:48.964Z,17.31
2023-05-20T10:16:15.310Z,17.22
2023-05-20T10:18:41.644Z,17.16
2023-05-20T10:21:07.941Z,17.29
2023-05-20T10:23:34.215Z,17.24
2023-05-20T10:26:00.490Z,17.14
2023-05-20T10:28:26.777Z,17.69
2023-05-20T10:30:53.064Z,17.44
2023-05-20T10:33:19.487Z,17.42
2023-05-20T10:35:45.803Z,17.28
2023-05-20T10:38:12.057Z,17.37
2023-05-20T10:40:38.430Z,18.37
2023-05-20T10:43:04.699Z,18.72
2023-05-20T10:45:30.962Z,18.86
2023-05-20T10:47:57.350Z,18.10
2023-05-20T10:50:23.703Z,18.20
2023-05-20T10:52:49.971Z,18.68
2023-05-20T10:55:16.245Z,18.23
2023-05-20T10:57:42.524Z,18.55
2023-05-20T11:00:08.795Z,18.89
2023-05-20T11:02:35.264Z,19.51
2023-05-20T11:05:01.637Z,19.72
2023-05-20T11:07:27.916Z,19.47
2023-05-20T11:09:54.201Z,20.29
2023-05-20T11:12:20.495Z,20.13
2023-05-20T11:14:46.763Z,19.87
2023-05-20T11:17:13.099Z,20.57
2023-05-20T11:19:39.364Z,20.93
2023-05-20T11:22:05.648Z,20.93
2023-05-20T11:24:31.914Z,20.70
2023-05-20T11:26:58.202Z,21.01
2023-05-20T11:29:24.511Z,20.36
2023-05-20T11:31:50.878Z,20.21
2023-05-20T11:34:17.292Z,20.13
2023-05-20T11:36:43.560Z,19.07
2023-05-20T11:39:09.832Z,19.95
2023-05-20T11:41:36.100Z,20.63
2023-05-20T11:44:02.391Z,20.85
2023-05-20T11:46:28.949Z,19.32
2023-05-20T11:48:55.315Z,20.19
2023-05-20T11:51:21.596Z,20.19
2023-05-20T11:53:47.850Z,19.79
2023-05-20T11:56:14.143Z,19.17
2023-05-20T11:58:40.466Z,18.39
2023-05-20T12:01:21.096Z,18.92
2023-05-20T12:03:48.517Z,19.15
2023-05-20T12:06:15.081Z,17.98
2023-05-20T12:08:41.357Z,18.27
2023-05-20T12:11:07.701Z,18.80
2023-05-20T12:13:35.481Z,18.63
2023-05-20T12:16:02.020Z,19.35
2023-05-20T12:18:28.357Z,19.91
2023-05-20T12:20:54.692Z,19.55
2023-05-20T12:23:20.960Z,18.94
2023-05-20T12:25:47.281Z,19.66
2023-05-20T12:28:13.670Z,19.80
2023-05-20T12:30:40.089Z,19.19
2023-05-20T12:33:06.529Z,18.78
2023-05-20T12:35:32.960Z,18.56
2023-05-20T12:37:59.237Z,18.13
2023-05-20T12:40:25.527Z,18.20
2023-05-20T12:42:51.800Z,18.48
2023-05-20T12:45:18.080Z,18.62
2023-05-20T12:47:44.363Z,18.41
2023-05-20T12:50:10.893Z,18.31
2023-05-20T12:52:37.220Z,18.20
2023-05-20T12:55:03.484Z,18.44
2023-05-20T12:57:29.843Z,18.78
2023-05-20T12:59:56.100Z,18.87
2023-05-20T13:02:22.424Z,19.05
2023-05-20T13:04:48.745Z,19.37
2023-05-20T13:07:15.240Z,19.63
2023-05-20T13:09:41.499Z,19.69
2023-05-20T13:12:07.904Z,19.54
2023-05-20T13:14:34.190Z,19.52
2023-05-20T13:17:00.612Z,19.22
2023-05-20T13:19:27.006Z,19.93
2023-05-20T13:21:53.290Z,19.38
2023-05-20T13:24:19.572Z,19.36
2023-05-20T13:26:45.883Z,19.65
2023-05-20T13:29:12.223Z,20.07
2023-05-20T13:31:38.633Z,19.88
2023-05-20T13:34:04.925Z,20.11
2023-05-20T13:36:31.244Z,20.49
2023-05-20T13:38:57.515Z,19.58
2023-05-20T13:41:23.807Z,20.05
2023-05-20T13:43:50.072Z,20.20
2023-05-20T13:46:16.476Z,20.59
2023-05-20T13:48:42.818Z,20.84
2023-05-20T13:51:09.089Z,20.89
2023-05-20T13:53:35.447Z,20.77
2023-05-20T13:56:01.751Z,19.69
2023-05-20T13:58:28.006Z,19.45
2023-05-20T14:00:54.372Z,19.38
2023-05-20T14:03:20.786Z,19.40
2023-05-20T14:05:47.139Z,18.85
2023-05-20T14:08:13.408Z,18.41
2023-05-20T14:10:39.671Z,18.48
2023-05-20T14:13:07.391Z,18.26
2023-05-20T14:15:34.960Z,18.10
2023-05-20T14:18:01.405Z,17.78
2023-05-20T14:20:27.705Z,17.91
2023-05-20T14:22:53.986Z,17.57
2023-05-20T14:25:20.269Z,17.42
2023-05-20T14:27:46.589Z,17.10
2023-05-20T14:30:12.855Z,16.93
2023-05-20T14:32:39.137Z,16.53
2023-05-20T14:35:05.430Z,16.44
2023-05-20T14:37:31.704Z,16.18
2023-05-20T14:39:57.975Z,16.14
2023-05-20T14:42:24.421Z,16.84
2023-05-20T14:44:50.678Z,17.44
2023-05-20T14:47:17.138Z,17.25
2023-05-20T14:49:43.481Z,17.10
2023-05-20T14:52:09.732Z,17.03
2023-05-20T14:54:35.996Z,16.77
2023-05-20T14:57:02.578Z,16.06
2023-05-20T14:59:29.089Z,16.16
2023-05-20T15:01:55.462Z,16.06
2023-05-20T15:04:21.778Z,16.06
2023-05-20T15:06:48.050Z,16.04
2023-05-20T15:09:14.382Z,16.42
2023-05-20T15:11:40.698Z,16.87
2023-05-20T15:14:07.104Z,17.02
2023-05-20T15:16:33.451Z,17.35
2023-05-20T15:19:00.078Z,17.67
2023-05-20T15:21:26.426Z,17.99
2023-05-20T15:23:52.894Z,17.38
2023-05-20T15:26:19.224Z,17.76
2023-05-20T15:28:45.491Z,17.54
2023-05-20T15:31:11.763Z,17.21
2023-05-20T15:33:38.111Z,17.85
2023-05-20T15:36:04.503Z,17.38
2023-05-20T15:38:30.766Z,17.73
2023-05-20T15:40:57.028Z,17.87
2023-05-20T15:43:23.287Z,17.93
2023-05-20T15:45:49.602Z,17.70
2023-05-20T15:48:15.940Z,17.30
2023-05-20T15:50:42.249Z,17.68
2023-05-20T15:53:08.504Z,18.04
2023-05-20T15:55:34.831Z,17.92
2023-05-20T15:58:01.104Z,18.12
2023-05-20T16:00:27.388Z,17.56
2023-05-20T16:02:53.807Z,17.94
2023-05-20T16:05:20.189Z,18.15
2023-05-20T16:07:46.455Z,17.80
2023-05-20T16:10:12.831Z,17.53
2023-05-20T16:12:39.096Z,17.43
2023-05-20T16:15:05.369Z,16.87
2023-05-20T16:17:31.679Z,16.75
2023-05-20T16:19:57.976Z,16.98
2023-05-20T16:22:24.272Z,17.52
2023-05-20T16:24:50.547Z,16.85
2023-05-20T16:27:16.813Z,17.00
2023-05-20T16:29:43.078Z,17.15
2023-05-20T16:32:09.375Z,17.10
2023-05-20T16:34:35.639Z,16.94
2023-05-20T16:37:01.894Z,16.45
2023-05-20T16:39:28.178Z,17.16
2023-05-20T16:41:54.448Z,16.91
2023-05-20T16:44:20.719Z,17.14
2023-05-20T16:46:46.985Z,17.25
2023-05-20T16:49:13.270Z,17.73
2023-05-20T16:51:39.552Z,17.42
2023-05-20T16:54:05.936Z,17.35
2023-05-20T16:56:32.267Z,17.02
2023-05-20T16:58:58.579Z,17.33
2023-05-20T17:01:24.880Z,17.32
2023-05-20T17:03:51.279Z,17.46
2023-05-20T17:06:17.643Z,17.78
2023-05-20T17:08:43.939Z,17.30
2023-05-20T17:11:10.201Z,17.41
2023-05-20T17:13:36.468Z,17.01
2023-05-20T17:16:02.889Z,16.74
2023-05-20T17:18:29.158Z,16.17
2023-05-20T17:20:55.415Z,16.42
2023-05-20T17:23:21.755Z,16.51
2023-05-20T17:25:48.117Z,16.28
2023-05-20T17:28:14.416Z,15.59
2023-05-20T17:30:40.701Z,15.55
2023-05-20T17:33:07.285Z,15.49
2023-05-20T17:35:33.645Z,15.79
2023-05-20T17:37:59.910Z,15.87
2023-05-20T17:40:26.188Z,16.20
2023-05-20T17:42:52.579Z,15.61
2023-05-20T17:45:18.924Z,15.54
2023-05-20T17:47:45.246Z,15.21
2023-05-20T17:50:11.544Z,14.89
2023-05-20T17:52:37.815Z,14.71
2023-05-20T17:55:04.108Z,15.00
2023-05-20T17:57:30.392Z,15.30
2023-05-20T17:59:56.742Z,14.96
2023-05-20T18:02:23.064Z,14.86
2023-05-20T18:04:49.378Z,14.50
2023-05-20T18:07:15.641Z,14.47
2023-05-20T18:09:41.920Z,14.74
2023-05-20T18:12:08.205Z,14.76
2023-05-20T18:14:34.463Z,14.68
2023-05-20T18:17:00.735Z,14.40
2023-05-20T18:19:27.106Z,14.01
2023-05-20T18:21:53.464Z,14.20
2023-05-20T18:24:19.739Z,14.45
2023-05-20T18:26:46.015Z,13.86
2023-05-20T18:29:15.072Z,14.30
2023-05-20T18:31:43.385Z,14.18
2023-05-20T18:34:10.004Z,14.24
2023-05-20T18:36:36.312Z,13.70
2023-05-20T18:39:02.615Z,13.70
2023-05-20T18:41:39.419Z,13.80
2023-05-20T18:44:12.702Z,13.27
2023-05-20T18:46:38.986Z,13.25
2023-05-20T18:49:05.337Z,13.34
2023-05-20T18:51:31.596Z,13.49
2023-05-20T18:53:57.881Z,13.23
2023-05-20T18:56:24.261Z,13.01
2023-05-20T18:58:50.548Z,12.60
2023-05-20T19:01:16.926Z,12.66
2023-05-20T19:03:43.298Z,12.59
2023-05-20T19:06:09.631Z,12.84
2023-05-20T19:08:35.911Z,13.45
2023-05-20T19:11:02.181Z,13.73
2023-05-20T19:13:28.453Z,13.26
2023-05-20T19:15:54.721Z,12.51
2023-05-20T19:18:21.011Z,12.37
2023-05-20T19:20:47.356Z,12.53
2023-05-20T19:23:13.636Z,12.58
2023-05-20T19:25:39.970Z,12.32
2023-05-20T19:28:06.337Z,12.85
2023-05-20T19:30:32.729Z,13.25
2023-05-20T19:32:59.190Z,12.94
2023-05-20T19:35:25.579Z,12.92
2023-05-20T19:37:51.887Z,12.97
2023-05-20T19:40:18.181Z,13.02
2023-05-20T19:42:44.473Z,13.12
2023-05-20T19:45:10.747Z,13.12
2023-05-20T19:47:37.100Z,13.79
2023-05-20T19:50:03.463Z,13.82
2023-05-20T19:52:29.780Z,13.55
2023-05-20T19:54:56.140Z,12.83
2023-05-20T19:57:22.436Z,13.05
2023-05-20T19:59:49.212Z,13.41
2023-05-20T20:02:16.489Z,13.24
2023-05-20T20:04:42.819Z,13.18
2023-05-20T20:07:09.119Z,13.65
2023-05-20T20:09:35.424Z,13.42
2023-05-20T20:12:01.740Z,13.83
2023-05-20T20:14:28.080Z,13.32
2023-05-20T20:16:54.446Z,13.37
2023-05-20T20:19:20.749Z,13.91
2023-05-20T20:21:47.068Z,13.38
2023-05-20T20:24:13.460Z,13.01
2023-05-20T20:26:39.810Z,13.48
2023-05-20T20:29:06.098Z,13.72
2023-05-20T20:31:32.397Z,13.88
2023-05-20T20:33:58.700Z,13.74
2023-05-20T20:36:24.974Z,12.74
2023-05-20T20:38:51.274Z,12.89
2023-05-20T20:41:17.572Z,13.23
2023-05-20T20:43:43.839Z,12.76
2023-05-20T20:46:10.166Z,12.70
2023-05-20T20:48:36.468Z,12.32
2023-05-20T20:51:02.744Z,12.40
2023-05-20T20:53:29.106Z,12.74
2023-05-20T20:55:55.385Z,12.66
2023-05-20T20:58:21.676Z,12.82
2023-05-20T21:00:47.967Z,12.29
2023-05-20T21:03:14.309Z,12.45
2023-05-20T21:05:40.638Z,12.28
2023-05-20T21:08:06.932Z,12.02
2023-05-20T21:10:33.217Z,12.31
2023-05-20T21:12:59.497Z,12.90
2023-05-20T21:15:25.776Z,13.09
2023-05-20T21:17:52.118Z,13.46
2023-05-20T21:20:21.062Z,13.51
2023-05-20T21:22:47.930Z,13.10
2023-05-20T21:25:14.215Z,12.69
2023-05-20T21:27:40.481Z,12.87
2023-05-20T21:30:06.745Z,12.86
2023-05-20T21:32:33.036Z,13.17
2023-05-20T21:34:59.317Z,13.00
2023-05-20T21:37:25.663Z,13.06
2023-05-20T21:39:51.926Z,12.75
2023-05-20T21:42:18.195Z,12.87
2023-05-20T21:44:44.541Z,12.24
2023-05-20T21:47:10.819Z,12.03
2023-05-20T21:49:37.109Z,12.49
2023-05-20T21:52:03.459Z,12.67
2023-05-20T21:54:29.708Z,13.11
2023-05-20T21:56:55.953Z,13.29
2023-05-20T21:59:22.216Z,13.12
2023-05-20T22:01:48.513Z,13.50
2023-05-20T22:04:14.917Z,13.64
2023-05-20T22:06:41.260Z,13.49
2023-05-20T22:09:07.520Z,13.40
2023-05-20T22:11:33.809Z,13.57
2023-05-20T22:14:00.155Z,13.65
2023-05-20T22:16:26.432Z,13.66
2023-05-20T22:18:52.789Z,13.57
2023-05-20T22:21:19.139Z,13.44
2023-05-20T22:23:45.413Z,13.30
2023-05-20T22:26:11.705Z,13.39
2023-05-20T22:28:37.987Z,13.18
2023-05-20T22:31:04.350Z,13.42
2023-05-20T22:33:30.665Z,13.42
2023-05-20T22:35:57.892Z,13.64
2023-05-20T22:38:24.247Z,13.33
2023-05-20T22:40:50.532Z,12.97
2023-05-20T22:43:16.843Z,12.76
2023-05-20T22:45:43.149Z,12.73
2023-05-20T22:48:09.468Z,12.76
2023-05-20T22:50:35.783Z,13.13
2023-05-20T22:53:02.061Z,12.63
2023-05-20T22:55:28.314Z,12.46
2023-05-20T22:57:54.579Z,12.58
2023-05-20T23:00:20.874Z,12.44
2023-05-20T23:02:47.171Z,12.16
2023-05-20T23:05:13.460Z,12.09
2023-05-20T23:07:39.764Z,11.82
2023-05-20T23:10:06.065Z,12.16
2023-05-20T23:12:32.351Z,11.85
2023-05-20T23:14:58.624Z,11.59
2023-05-20T23:17:24.894Z,11.91
2023-05-20T23:19:51.258Z,12.27
2023-05-20T23:22:17.547Z,12.62
2023-05-20T23:24:43.935Z,12.82
2023-05-20T23:27:10.212Z,13.12
2023-05-20T23:29:36.479Z,13.17
2023-05-20T23:32:02.751Z,13.39
2023-05-20T23:34:29.015Z,13.34
2023-05-20T23:36:55.290Z,12.98
2023-05-20T23:39:21.564Z,12.51
2023-05-20T23:41:47.839Z,12.37
2023-05-20T23:44:14.124Z,12.46
2023-05-20T23:46:40.421Z,12.59
2023-05-20T23:49:06.819Z,12.45
2023-05-20T23:51:33.114Z,11.69
2023-05-20T23:53:59.378Z,11.47
2023-05-20T23:56:25.700Z,11.90
2023-05-20T23:58:51.983Z,12.40
